sensor_id;sensor_type;location;lat;lon;timestamp;temperature;humidity
5786;DHT22;2919;48.630;9.000;2023-03-14T00:01:29;8.50;99.90
5786;DHT22;2919;48.630;9.000;2023-03-14T00:03:55;8.40;99.90
5786;DHT22;2919;48.630;9.000;2023-03-14T00:06:20;8.50;99.90
5786;DHT22;2919;48.630;9.000;2023-03-14T00:08:46;8.50;99.90
5786;DHT22;2919;48.630;9.000;2023-03-14T00:11:18;8.50;99.90
5786;DHT22;2919;48.630;9.000;2023-03-14T00:13:47;8.50;99.90
5786;DHT22;2919;48.630;9.000;2023-03-14T00:16:13;8.50;99.90
5786;DHT22;2919;48.630;9.000;2023-03-14T00:18:39;8.50;99.90
5786;DHT22;2919;48.630;9.000;2023-03-14T00:21:06;8.50;99.90
5786;DHT22;2919;48.630;9.000;2023-03-14T00:23:34;8.50;99.90
5786;DHT22;2919;48.630;9.000;2023-03-14T00:26:00;8.40;99.90
5786;DHT22;2919;48.630;9.000;2023-03-14T00:28:27;8.50;99.90
5786;DHT22;2919;48.630;9.000;2023-03-14T00:30:53;8.50;99.90
5786;DHT22;2919;48.630;9.000;2023-03-14T00:33:20;8.50;99.90
5786;DHT22;2919;48.630;9.000;2023-03-14T00:35:56;8.50;99.90
5786;DHT22;2919;48.630;9.000;2023-03-14T00:38:22;8.50;99.90
5786;DHT22;2919;48.630;9.000;2023-03-14T00:40:50;8.50;99.90
5786;DHT22;2919;48.630;9.000;2023-03-14T00:43:16;8.50;99.90
5786;DHT22;2919;48.630;9.000;2023-03-14T00:45:41;8.50;99.90
5786;DHT22;2919;48.630;9.000;2023-03-14T00:48:07;8.50;99.90
5786;DHT22;2919;48.630;9.000;2023-03-14T00:50:32;8.50;99.90
5786;DHT22;2919;48.630;9.000;2023-03-14T00:52:58;8.50;99.90
5786;DHT22;2919;48.630;9.000;2023-03-14T00:55:24;8.50;99.90
5786;DHT22;2919;48.630;9.000;2023-03-14T00:57:50;8.50;99.90
5786;DHT22;2919;48.630;9.000;2023-03-14T01:00:15;8.50;99.90
5786;DHT22;2919;48.630;9.000;2023-03-14T01:02:41;8.50;99.90
5786;DHT22;2919;48.630;9.000;2023-03-14T01:05:07;8.50;99.90
5786;DHT22;2919;48.630;9.000;2023-03-14T01:07:35;8.50;99.90
5786;DHT22;2919;48.630;9.000;2023-03-14T01:10:01;8.50;99.90
5786;DHT22;2919;48.630;9.000;2023-03-14T01:12:27;8.50;99.90
5786;DHT22;2919;48.630;9.000;2023-03-14T01:14:53;8.50;99.90
5786;DHT22;2919;48.630;9.000;2023-03-14T01:17:18;8.50;99.90
5786;DHT22;2919;48.630;9.000;2023-03-14T01:19:44;8.50;99.90
5786;DHT22;2919;48.630;9.000;2023-03-14T01:22:09;8.50;99.90
5786;DHT22;2919;48.630;9.000;2023-03-14T01:24:37;8.60;99.90
5786;DHT22;2919;48.630;9.000;2023-03-14T01:27:02;8.60;99.90
5786;DHT22;2919;48.630;9.000;2023-03-14T01:29:28;8.60;99.90
5786;DHT22;2919;48.630;9.000;2023-03-14T01:31:54;8.50;99.90
5786;DHT22;2919;48.630;9.000;2023-03-14T01:34:20;8.50;99.90
5786;DHT22;2919;48.630;9.000;2023-03-14T01:36:45;8.50;99.90
5786;DHT22;2919;48.630;9.000;2023-03-14T01:39:11;8.50;99.90
5786;DHT22;2919;48.630;9.000;2023-03-14T01:41:38;8.50;99.90
5786;DHT22;2919;48.630;9.000;2023-03-14T01:44:04;8.40;99.90
5786;DHT22;2919;48.630;9.000;2023-03-14T01:46:46;8.40;99.90
5786;DHT22;2919;48.630;9.000;2023-03-14T01:52:14;8.40;99.90
5786;DHT22;2919;48.630;9.000;2023-03-14T01:55:03;8.30;99.90
5786;DHT22;2919;48.630;9.000;2023-03-14T01:57:35;8.30;99.90
5786;DHT22;2919;48.630;9.000;2023-03-14T02:00:12;8.30;99.90
5786;DHT22;2919;48.630;9.000;2023-03-14T02:02:41;8.30;99.90
5786;DHT22;2919;48.630;9.000;2023-03-14T02:05:09;8.30;99.90
5786;DHT22;2919;48.630;9.000;2023-03-14T02:07:54;8.30;99.90
5786;DHT22;2919;48.630;9.000;2023-03-14T02:10:23;8.30;99.90
5786;DHT22;2919;48.630;9.000;2023-03-14T02:12:50;8.30;99.90
5786;DHT22;2919;48.630;9.000;2023-03-14T02:15:17;8.30;99.90
5786;DHT22;2919;48.630;9.000;2023-03-14T02:17:44;8.30;99.90
5786;DHT22;2919;48.630;9.000;2023-03-14T02:22:54;8.30;99.90
5786;DHT22;2919;48.630;9.000;2023-03-14T02:27:51;8.20;99.90
5786;DHT22;2919;48.630;9.000;2023-03-14T02:30:24;8.20;99.90
5786;DHT22;2919;48.630;9.000;2023-03-14T02:32:54;8.20;99.90
5786;DHT22;2919;48.630;9.000;2023-03-14T02:35:27;8.20;99.90
5786;DHT22;2919;48.630;9.000;2023-03-14T02:37:59;8.20;99.90
5786;DHT22;2919;48.630;9.000;2023-03-14T02:40:26;8.20;99.90
5786;DHT22;2919;48.630;9.000;2023-03-14T02:42:51;8.20;99.90
5786;DHT22;2919;48.630;9.000;2023-03-14T02:47:45;8.20;99.90
5786;DHT22;2919;48.630;9.000;2023-03-14T02:50:15;8.20;99.90
5786;DHT22;2919;48.630;9.000;2023-03-14T02:52:41;8.10;99.90
5786;DHT22;2919;48.630;9.000;2023-03-14T02:55:07;8.10;99.90
5786;DHT22;2919;48.630;9.000;2023-03-14T02:57:33;8.10;99.90
5786;DHT22;2919;48.630;9.000;2023-03-14T02:59:59;8.00;99.90
5786;DHT22;2919;48.630;9.000;2023-03-14T03:02:26;8.00;99.90
5786;DHT22;2919;48.630;9.000;2023-03-14T03:04:52;8.00;99.90
5786;DHT22;2919;48.630;9.000;2023-03-14T03:07:18;8.00;99.90
5786;DHT22;2919;48.630;9.000;2023-03-14T03:09:44;8.00;99.90
5786;DHT22;2919;48.630;9.000;2023-03-14T03:12:10;8.00;99.90
5786;DHT22;2919;48.630;9.000;2023-03-14T03:14:35;8.00;99.90
5786;DHT22;2919;48.630;9.000;2023-03-14T03:17:03;8.00;99.90
5786;DHT22;2919;48.630;9.000;2023-03-14T03:19:30;8.00;99.90
5786;DHT22;2919;48.630;9.000;2023-03-14T03:21:56;7.90;99.90
5786;DHT22;2919;48.630;9.000;2023-03-14T03:24:21;7.90;99.90
5786;DHT22;2919;48.630;9.000;2023-03-14T03:26:47;7.90;99.90
5786;DHT22;2919;48.630;9.000;2023-03-14T03:29:12;7.90;99.90
5786;DHT22;2919;48.630;9.000;2023-03-14T03:31:39;7.80;99.90
5786;DHT22;2919;48.630;9.000;2023-03-14T03:34:04;7.80;99.90
5786;DHT22;2919;48.630;9.000;2023-03-14T03:36:30;7.70;99.90
5786;DHT22;2919;48.630;9.000;2023-03-14T03:38:55;7.70;99.90
5786;DHT22;2919;48.630;9.000;2023-03-14T03:41:21;7.70;99.90
5786;DHT22;2919;48.630;9.000;2023-03-14T03:43:47;7.70;99.90
5786;DHT22;2919;48.630;9.000;2023-03-14T03:46:12;7.70;99.90
5786;DHT22;2919;48.630;9.000;2023-03-14T03:48:38;7.70;99.90
5786;DHT22;2919;48.630;9.000;2023-03-14T03:51:04;7.70;99.90
5786;DHT22;2919;48.630;9.000;2023-03-14T03:53:29;7.70;99.90
5786;DHT22;2919;48.630;9.000;2023-03-14T03:55:55;7.70;99.90
5786;DHT22;2919;48.630;9.000;2023-03-14T03:58:20;7.60;99.90
5786;DHT22;2919;48.630;9.000;2023-03-14T04:00:46;7.60;99.90
5786;DHT22;2919;48.630;9.000;2023-03-14T04:03:11;7.60;99.90
5786;DHT22;2919;48.630;9.000;2023-03-14T04:05:37;7.50;99.90
5786;DHT22;2919;48.630;9.000;2023-03-14T04:08:04;7.60;99.90
5786;DHT22;2919;48.630;9.000;2023-03-14T04:10:30;7.60;99.90
5786;DHT22;2919;48.630;9.000;2023-03-14T04:12:55;7.50;99.90
5786;DHT22;2919;48.630;9.000;2023-03-14T04:15:21;7.60;99.90
5786;DHT22;2919;48.630;9.000;2023-03-14T04:17:46;7.60;99.90
5786;DHT22;2919;48.630;9.000;2023-03-14T04:20:12;7.60;99.90
5786;DHT22;2919;48.630;9.000;2023-03-14T04:22:39;7.60;99.90
5786;DHT22;2919;48.630;9.000;2023-03-14T04:25:05;7.50;99.90
5786;DHT22;2919;48.630;9.000;2023-03-14T04:27:31;7.50;99.90
5786;DHT22;2919;48.630;9.000;2023-03-14T04:29:56;7.50;99.90
5786;DHT22;2919;48.630;9.000;2023-03-14T04:32:22;7.50;99.90
5786;DHT22;2919;48.630;9.000;2023-03-14T04:34:47;7.60;99.90
5786;DHT22;2919;48.630;9.000;2023-03-14T04:37:13;7.60;99.90
5786;DHT22;2919;48.630;9.000;2023-03-14T04:39:39;7.60;99.90
5786;DHT22;2919;48.630;9.000;2023-03-14T04:42:04;7.60;99.90
5786;DHT22;2919;48.630;9.000;2023-03-14T04:44:31;7.50;99.90
5786;DHT22;2919;48.630;9.000;2023-03-14T04:46:56;7.50;99.90
5786;DHT22;2919;48.630;9.000;2023-03-14T04:49:22;7.60;99.90
5786;DHT22;2919;48.630;9.000;2023-03-14T04:51:48;7.50;99.90
5786;DHT22;2919;48.630;9.000;2023-03-14T04:54:16;7.40;99.90
5786;DHT22;2919;48.630;9.000;2023-03-14T04:56:42;7.50;99.90
5786;DHT22;2919;48.630;9.000;2023-03-14T04:59:07;7.40;99.90
5786;DHT22;2919;48.630;9.000;2023-03-14T05:01:33;7.40;99.90
5786;DHT22;2919;48.630;9.000;2023-03-14T05:03:59;7.50;99.90
5786;DHT22;2919;48.630;9.000;2023-03-14T05:06:25;7.50;99.90
5786;DHT22;2919;48.630;9.000;2023-03-14T05:08:50;7.50;99.90
5786;DHT22;2919;48.630;9.000;2023-03-14T05:11:16;7.40;99.90
5786;DHT22;2919;48.630;9.000;2023-03-14T05:13:42;7.40;99.90
5786;DHT22;2919;48.630;9.000;2023-03-14T05:16:09;7.40;99.90
5786;DHT22;2919;48.630;9.000;2023-03-14T05:18:35;7.40;99.90
5786;DHT22;2919;48.630;9.000;2023-03-14T05:21:01;7.40;99.90
5786;DHT22;2919;48.630;9.000;2023-03-14T05:23:27;7.40;99.90
5786;DHT22;2919;48.630;9.000;2023-03-14T05:25:53;7.40;99.90
5786;DHT22;2919;48.630;9.000;2023-03-14T05:28:19;7.40;99.90
5786;DHT22;2919;48.630;9.000;2023-03-14T05:30:44;7.40;99.90
5786;DHT22;2919;48.630;9.000;2023-03-14T05:33:10;7.50;99.90
5786;DHT22;2919;48.630;9.000;2023-03-14T05:35:35;7.60;99.90
5786;DHT22;2919;48.630;9.000;2023-03-14T05:38:01;7.70;99.90
5786;DHT22;2919;48.630;9.000;2023-03-14T05:40:27;7.60;99.90
5786;DHT22;2919;48.630;9.000;2023-03-14T05:42:52;7.60;99.90
5786;DHT22;2919;48.630;9.000;2023-03-14T05:45:18;7.60;99.90
5786;DHT22;2919;48.630;9.000;2023-03-14T05:47:44;7.60;99.90
5786;DHT22;2919;48.630;9.000;2023-03-14T05:50:10;7.60;99.90
5786;DHT22;2919;48.630;9.000;2023-03-14T05:52:36;7.60;99.90
5786;DHT22;2919;48.630;9.000;2023-03-14T05:55:02;7.60;99.90
5786;DHT22;2919;48.630;9.000;2023-03-14T05:57:27;7.60;99.90
5786;DHT22;2919;48.630;9.000;2023-03-14T05:59:53;7.60;99.90
5786;DHT22;2919;48.630;9.000;2023-03-14T06:02:19;7.60;99.90
5786;DHT22;2919;48.630;9.000;2023-03-14T06:04:44;7.70;99.90
5786;DHT22;2919;48.630;9.000;2023-03-14T06:07:10;7.60;99.90
5786;DHT22;2919;48.630;9.000;2023-03-14T06:09:36;7.70;99.90
5786;DHT22;2919;48.630;9.000;2023-03-14T06:12:01;7.60;99.90
5786;DHT22;2919;48.630;9.000;2023-03-14T06:14:27;7.70;99.90
5786;DHT22;2919;48.630;9.000;2023-03-14T06:16:52;7.70;99.90
5786;DHT22;2919;48.630;9.000;2023-03-14T06:19:19;7.70;99.90
5786;DHT22;2919;48.630;9.000;2023-03-14T06:21:45;7.70;99.90
5786;DHT22;2919;48.630;9.000;2023-03-14T06:24:10;7.80;99.90
5786;DHT22;2919;48.630;9.000;2023-03-14T06:26:36;7.80;99.90
5786;DHT22;2919;48.630;9.000;2023-03-14T06:29:02;7.80;99.90
5786;DHT22;2919;48.630;9.000;2023-03-14T06:31:31;7.80;99.90
5786;DHT22;2919;48.630;9.000;2023-03-14T06:33:57;7.90;99.90
5786;DHT22;2919;48.630;9.000;2023-03-14T06:36:23;7.90;99.90
5786;DHT22;2919;48.630;9.000;2023-03-14T06:38:49;7.90;99.90
5786;DHT22;2919;48.630;9.000;2023-03-14T06:41:14;8.00;99.90
5786;DHT22;2919;48.630;9.000;2023-03-14T06:43:40;8.10;99.90
5786;DHT22;2919;48.630;9.000;2023-03-14T06:46:06;8.20;99.90
5786;DHT22;2919;48.630;9.000;2023-03-14T06:48:32;8.10;99.90
5786;DHT22;2919;48.630;9.000;2023-03-14T06:50:57;8.20;99.90
5786;DHT22;2919;48.630;9.000;2023-03-14T06:53:23;8.30;99.90
5786;DHT22;2919;48.630;9.000;2023-03-14T06:55:48;8.40;99.90
5786;DHT22;2919;48.630;9.000;2023-03-14T06:58:14;8.60;99.90
5786;DHT22;2919;48.630;9.000;2023-03-14T07:00:40;8.50;99.90
5786;DHT22;2919;48.630;9.000;2023-03-14T07:03:06;8.50;99.90
5786;DHT22;2919;48.630;9.000;2023-03-14T07:05:32;8.60;99.90
5786;DHT22;2919;48.630;9.000;2023-03-14T07:07:57;8.70;99.90
5786;DHT22;2919;48.630;9.000;2023-03-14T07:10:23;8.80;99.90
5786;DHT22;2919;48.630;9.000;2023-03-14T07:12:49;9.00;99.90
5786;DHT22;2919;48.630;9.000;2023-03-14T07:15:14;9.10;99.90
5786;DHT22;2919;48.630;9.000;2023-03-14T07:17:40;9.20;99.90
5786;DHT22;2919;48.630;9.000;2023-03-14T07:20:06;9.40;99.90
5786;DHT22;2919;48.630;9.000;2023-03-14T07:22:33;9.40;99.90
5786;DHT22;2919;48.630;9.000;2023-03-14T07:24:58;9.60;99.90
5786;DHT22;2919;48.630;9.000;2023-03-14T07:27:24;9.70;99.90
5786;DHT22;2919;48.630;9.000;2023-03-14T07:29:49;9.80;99.90
5786;DHT22;2919;48.630;9.000;2023-03-14T07:32:16;9.90;99.90
5786;DHT22;2919;48.630;9.000;2023-03-14T07:34:42;9.90;99.90
5786;DHT22;2919;48.630;9.000;2023-03-14T07:37:07;10.10;99.90
5786;DHT22;2919;48.630;9.000;2023-03-14T07:39:33;10.00;99.90
5786;DHT22;2919;48.630;9.000;2023-03-14T07:41:59;10.00;99.90
5786;DHT22;2919;48.630;9.000;2023-03-14T07:44:25;10.30;99.90
5786;DHT22;2919;48.630;9.000;2023-03-14T07:46:51;10.60;99.90
5786;DHT22;2919;48.630;9.000;2023-03-14T07:49:17;11.00;99.90
5786;DHT22;2919;48.630;9.000;2023-03-14T07:51:42;11.30;99.90
5786;DHT22;2919;48.630;9.000;2023-03-14T07:54:09;11.10;99.90
5786;DHT22;2919;48.630;9.000;2023-03-14T07:56:35;11.00;99.90
5786;DHT22;2919;48.630;9.000;2023-03-14T07:59:01;11.20;99.90
5786;DHT22;2919;48.630;9.000;2023-03-14T08:01:27;11.60;99.90
5786;DHT22;2919;48.630;9.000;2023-03-14T08:03:52;11.70;99.90
5786;DHT22;2919;48.630;9.000;2023-03-14T08:06:18;11.70;99.90
5786;DHT22;2919;48.630;9.000;2023-03-14T08:08:43;11.30;99.90
5786;DHT22;2919;48.630;9.000;2023-03-14T08:11:09;11.10;99.90
5786;DHT22;2919;48.630;9.000;2023-03-14T08:13:36;11.30;99.90
5786;DHT22;2919;48.630;9.000;2023-03-14T08:16:01;11.80;99.90
5786;DHT22;2919;48.630;9.000;2023-03-14T08:18:27;12.40;99.20
5786;DHT22;2919;48.630;9.000;2023-03-14T08:20:53;12.80;97.80
5786;DHT22;2919;48.630;9.000;2023-03-14T08:23:18;13.40;98.40
5786;DHT22;2919;48.630;9.000;2023-03-14T08:25:44;13.70;96.50
5786;DHT22;2919;48.630;9.000;2023-03-14T08:28:10;14.00;96.10
5786;DHT22;2919;48.630;9.000;2023-03-14T08:30:35;13.80;95.90
5786;DHT22;2919;48.630;9.000;2023-03-14T08:33:01;13.10;95.90
5786;DHT22;2919;48.630;9.000;2023-03-14T08:35:27;12.60;97.00
5786;DHT22;2919;48.630;9.000;2023-03-14T08:37:53;12.00;97.50
5786;DHT22;2919;48.630;9.000;2023-03-14T08:40:19;11.70;98.60
5786;DHT22;2919;48.630;9.000;2023-03-14T08:42:45;11.40;98.90
5786;DHT22;2919;48.630;9.000;2023-03-14T08:45:12;11.20;99.50
5786;DHT22;2919;48.630;9.000;2023-03-14T08:47:39;11.00;99.90
5786;DHT22;2919;48.630;9.000;2023-03-14T08:50:05;10.90;99.90
5786;DHT22;2919;48.630;9.000;2023-03-14T08:52:32;10.60;99.90
5786;DHT22;2919;48.630;9.000;2023-03-14T08:54:58;10.40;99.90
5786;DHT22;2919;48.630;9.000;2023-03-14T08:57:24;10.30;99.90
5786;DHT22;2919;48.630;9.000;2023-03-14T08:59:53;10.30;99.90
5786;DHT22;2919;48.630;9.000;2023-03-14T09:02:20;10.10;99.90
5786;DHT22;2919;48.630;9.000;2023-03-14T09:04:47;10.00;99.90
5786;DHT22;2919;48.630;9.000;2023-03-14T09:07:13;9.90;99.90
5786;DHT22;2919;48.630;9.000;2023-03-14T09:09:39;9.70;99.90
5786;DHT22;2919;48.630;9.000;2023-03-14T09:12:05;9.60;99.90
5786;DHT22;2919;48.630;9.000;2023-03-14T09:14:31;9.60;99.90
5786;DHT22;2919;48.630;9.000;2023-03-14T09:16:57;9.60;99.90
5786;DHT22;2919;48.630;9.000;2023-03-14T09:19:23;9.70;99.90
5786;DHT22;2919;48.630;9.000;2023-03-14T09:21:49;9.70;99.90
5786;DHT22;2919;48.630;9.000;2023-03-14T09:24:15;9.80;99.90
5786;DHT22;2919;48.630;9.000;2023-03-14T09:26:41;9.80;99.90
5786;DHT22;2919;48.630;9.000;2023-03-14T09:29:06;9.80;99.90
5786;DHT22;2919;48.630;9.000;2023-03-14T09:31:33;9.90;99.90
5786;DHT22;2919;48.630;9.000;2023-03-14T09:33:58;9.90;99.90
5786;DHT22;2919;48.630;9.000;2023-03-14T09:36:24;10.00;99.90
5786;DHT22;2919;48.630;9.000;2023-03-14T09:38:50;10.20;99.90
5786;DHT22;2919;48.630;9.000;2023-03-14T09:43:42;10.40;99.90
5786;DHT22;2919;48.630;9.000;2023-03-14T09:46:09;10.40;99.90
5786;DHT22;2919;48.630;9.000;2023-03-14T09:48:36;10.40;99.90
5786;DHT22;2919;48.630;9.000;2023-03-14T09:51:10;10.30;99.90
5786;DHT22;2919;48.630;9.000;2023-03-14T09:53:44;10.50;99.90
5786;DHT22;2919;48.630;9.000;2023-03-14T09:56:27;10.50;99.90
5786;DHT22;2919;48.630;9.000;2023-03-14T09:58:58;10.60;99.90
5786;DHT22;2919;48.630;9.000;2023-03-14T10:01:27;10.60;99.90
5786;DHT22;2919;48.630;9.000;2023-03-14T10:03:58;10.50;99.90
5786;DHT22;2919;48.630;9.000;2023-03-14T10:06:30;10.60;99.90
5786;DHT22;2919;48.630;9.000;2023-03-14T10:08:56;10.80;99.90
5786;DHT22;2919;48.630;9.000;2023-03-14T10:11:23;11.10;99.90
5786;DHT22;2919;48.630;9.000;2023-03-14T10:14:02;11.10;99.90
5786;DHT22;2919;48.630;9.000;2023-03-14T10:16:31;11.20;99.90
5786;DHT22;2919;48.630;9.000;2023-03-14T10:19:07;11.20;99.90
5786;DHT22;2919;48.630;9.000;2023-03-14T10:21:43;11.20;99.90
5786;DHT22;2919;48.630;9.000;2023-03-14T10:27:35;11.10;99.90
5786;DHT22;2919;48.630;9.000;2023-03-14T10:30:00;11.10;99.90
5786;DHT22;2919;48.630;9.000;2023-03-14T10:32:36;11.20;99.90
5786;DHT22;2919;48.630;9.000;2023-03-14T10:37:56;11.00;99.90
5786;DHT22;2919;48.630;9.000;2023-03-14T10:40:28;10.90;99.90
5786;DHT22;2919;48.630;9.000;2023-03-14T10:42:56;11.00;99.90
5786;DHT22;2919;48.630;9.000;2023-03-14T10:45:41;10.90;99.90
5786;DHT22;2919;48.630;9.000;2023-03-14T10:48:24;10.90;99.90
5786;DHT22;2919;48.630;9.000;2023-03-14T10:53:23;10.70;99.90
5786;DHT22;2919;48.630;9.000;2023-03-14T10:55:49;10.60;99.90
5786;DHT22;2919;48.630;9.000;2023-03-14T11:03:24;10.60;99.90
5786;DHT22;2919;48.630;9.000;2023-03-14T11:08:24;10.50;99.90
5786;DHT22;2919;48.630;9.000;2023-03-14T11:19:36;10.20;99.90
5786;DHT22;2919;48.630;9.000;2023-03-14T11:22:20;10.10;99.90
5786;DHT22;2919;48.630;9.000;2023-03-14T11:27:48;10.00;99.90
5786;DHT22;2919;48.630;9.000;2023-03-14T11:33:03;9.80;99.90
5786;DHT22;2919;48.630;9.000;2023-03-14T11:35:34;9.60;99.90
5786;DHT22;2919;48.630;9.000;2023-03-14T11:38:14;9.50;99.90
5786;DHT22;2919;48.630;9.000;2023-03-14T11:40:40;9.50;99.90
5786;DHT22;2919;48.630;9.000;2023-03-14T11:43:17;9.50;99.90
5786;DHT22;2919;48.630;9.000;2023-03-14T11:45:44;9.60;99.90
5786;DHT22;2919;48.630;9.000;2023-03-14T11:48:13;9.50;99.90
5786;DHT22;2919;48.630;9.000;2023-03-14T11:50:43;9.60;99.90
5786;DHT22;2919;48.630;9.000;2023-03-14T11:55:40;9.50;99.90
5786;DHT22;2919;48.630;9.000;2023-03-14T11:58:20;9.40;99.90
5786;DHT22;2919;48.630;9.000;2023-03-14T12:00:49;9.20;99.90
5786;DHT22;2919;48.630;9.000;2023-03-14T12:08:56;9.10;99.90
5786;DHT22;2919;48.630;9.000;2023-03-14T12:16:46;9.20;99.90
5786;DHT22;2919;48.630;9.000;2023-03-14T12:24:20;9.20;99.90
5786;DHT22;2919;48.630;9.000;2023-03-14T12:27:09;9.10;99.90
5786;DHT22;2919;48.630;9.000;2023-03-14T12:29:58;8.90;99.90
5786;DHT22;2919;48.630;9.000;2023-03-14T12:32:25;8.90;99.90
5786;DHT22;2919;48.630;9.000;2023-03-14T12:34:51;9.10;99.90
5786;DHT22;2919;48.630;9.000;2023-03-14T12:37:31;9.40;99.90
5786;DHT22;2919;48.630;9.000;2023-03-14T12:42:54;10.00;98.30
5786;DHT22;2919;48.630;9.000;2023-03-14T12:45:36;9.80;96.70
5786;DHT22;2919;48.630;9.000;2023-03-14T12:48:22;9.90;99.00
5786;DHT22;2919;48.630;9.000;2023-03-14T12:50:55;9.80;96.60
5786;DHT22;2919;48.630;9.000;2023-03-14T12:56:02;9.20;97.20
5786;DHT22;2919;48.630;9.000;2023-03-14T13:01:16;9.30;97.50
5786;DHT22;2919;48.630;9.000;2023-03-14T13:03:51;9.30;97.00
5786;DHT22;2919;48.630;9.000;2023-03-14T13:12:03;9.90;94.90
5786;DHT22;2919;48.630;9.000;2023-03-14T13:14:33;9.50;94.10
5786;DHT22;2919;48.630;9.000;2023-03-14T13:17:02;9.30;94.70
5786;DHT22;2919;48.630;9.000;2023-03-14T13:19:30;9.10;95.40
5786;DHT22;2919;48.630;9.000;2023-03-14T13:22:04;9.00;95.50
5786;DHT22;2919;48.630;9.000;2023-03-14T13:24:33;8.90;96.30
5786;DHT22;2919;48.630;9.000;2023-03-14T13:27:00;8.90;96.10
5786;DHT22;2919;48.630;9.000;2023-03-14T13:31:57;8.70;95.70
5786;DHT22;2919;48.630;9.000;2023-03-14T13:34:29;8.50;94.70
5786;DHT22;2919;48.630;9.000;2023-03-14T13:36:55;8.40;95.80
5786;DHT22;2919;48.630;9.000;2023-03-14T13:39:23;8.20;94.60
5786;DHT22;2919;48.630;9.000;2023-03-14T13:41:51;8.00;93.60
5786;DHT22;2919;48.630;9.000;2023-03-14T13:44:33;8.00;94.20
5786;DHT22;2919;48.630;9.000;2023-03-14T13:47:00;7.90;95.00
5786;DHT22;2919;48.630;9.000;2023-03-14T13:49:27;7.80;94.00
5786;DHT22;2919;48.630;9.000;2023-03-14T13:51:54;7.80;94.70
5786;DHT22;2919;48.630;9.000;2023-03-14T13:54:21;7.90;94.70
5786;DHT22;2919;48.630;9.000;2023-03-14T13:56:48;7.90;94.40
5786;DHT22;2919;48.630;9.000;2023-03-14T13:59:24;7.80;93.60
5786;DHT22;2919;48.630;9.000;2023-03-14T14:01:50;7.80;93.60
5786;DHT22;2919;48.630;9.000;2023-03-14T14:04:19;7.80;93.10
5786;DHT22;2919;48.630;9.000;2023-03-14T14:06:57;7.70;93.00
5786;DHT22;2919;48.630;9.000;2023-03-14T14:09:24;7.60;93.30
5786;DHT22;2919;48.630;9.000;2023-03-14T14:12:00;7.80;93.80
5786;DHT22;2919;48.630;9.000;2023-03-14T14:17:12;7.70;93.10
5786;DHT22;2919;48.630;9.000;2023-03-14T14:19:41;7.70;92.60
5786;DHT22;2919;48.630;9.000;2023-03-14T14:22:09;7.60;92.10
5786;DHT22;2919;48.630;9.000;2023-03-14T14:24:36;7.60;91.80
5786;DHT22;2919;48.630;9.000;2023-03-14T14:29:44;7.60;92.40
5786;DHT22;2919;48.630;9.000;2023-03-14T14:32:12;7.70;91.60
5786;DHT22;2919;48.630;9.000;2023-03-14T14:37:05;7.50;90.50
5786;DHT22;2919;48.630;9.000;2023-03-14T14:39:39;7.50;90.90
5786;DHT22;2919;48.630;9.000;2023-03-14T14:42:14;7.50;90.90
5786;DHT22;2919;48.630;9.000;2023-03-14T14:44:42;7.50;90.70
5786;DHT22;2919;48.630;9.000;2023-03-14T14:47:13;7.60;91.10
5786;DHT22;2919;48.630;9.000;2023-03-14T14:49:39;7.70;90.60
5786;DHT22;2919;48.630;9.000;2023-03-14T14:52:17;7.60;90.30
5786;DHT22;2919;48.630;9.000;2023-03-14T14:57:20;7.70;90.90
5786;DHT22;2919;48.630;9.000;2023-03-14T14:59:49;7.80;91.10
5786;DHT22;2919;48.630;9.000;2023-03-14T15:02:38;7.90;90.20
5786;DHT22;2919;48.630;9.000;2023-03-14T15:05:18;8.10;90.40
5786;DHT22;2919;48.630;9.000;2023-03-14T15:07:44;8.20;90.00
5786;DHT22;2919;48.630;9.000;2023-03-14T15:10:12;8.20;88.70
5786;DHT22;2919;48.630;9.000;2023-03-14T15:12:39;8.10;90.30
5786;DHT22;2919;48.630;9.000;2023-03-14T15:15:06;8.10;90.20
5786;DHT22;2919;48.630;9.000;2023-03-14T15:17:32;8.10;90.20
5786;DHT22;2919;48.630;9.000;2023-03-14T15:19:57;8.20;90.20
5786;DHT22;2919;48.630;9.000;2023-03-14T15:22:24;8.00;90.30
5786;DHT22;2919;48.630;9.000;2023-03-14T15:24:50;7.90;91.00
5786;DHT22;2919;48.630;9.000;2023-03-14T15:27:17;7.90;90.20
5786;DHT22;2919;48.630;9.000;2023-03-14T15:29:43;7.80;91.20
5786;DHT22;2919;48.630;9.000;2023-03-14T15:32:14;7.80;91.20
5786;DHT22;2919;48.630;9.000;2023-03-14T15:34:40;7.80;91.10
5786;DHT22;2919;48.630;9.000;2023-03-14T15:37:12;7.70;90.80
5786;DHT22;2919;48.630;9.000;2023-03-14T15:39:38;7.70;90.90
5786;DHT22;2919;48.630;9.000;2023-03-14T15:42:03;7.70;91.60
5786;DHT22;2919;48.630;9.000;2023-03-14T15:44:29;7.70;91.40
5786;DHT22;2919;48.630;9.000;2023-03-14T15:46:55;7.80;91.60
5786;DHT22;2919;48.630;9.000;2023-03-14T15:49:20;7.80;91.20
5786;DHT22;2919;48.630;9.000;2023-03-14T15:51:46;7.80;91.30
5786;DHT22;2919;48.630;9.000;2023-03-14T15:54:12;7.80;91.50
5786;DHT22;2919;48.630;9.000;2023-03-14T15:56:37;7.90;91.70
5786;DHT22;2919;48.630;9.000;2023-03-14T15:59:03;7.90;91.90
5786;DHT22;2919;48.630;9.000;2023-03-14T16:01:28;7.90;91.80
5786;DHT22;2919;48.630;9.000;2023-03-14T16:03:54;7.90;91.30
5786;DHT22;2919;48.630;9.000;2023-03-14T16:06:19;7.80;91.70
5786;DHT22;2919;48.630;9.000;2023-03-14T16:08:45;7.80;91.60
5786;DHT22;2919;48.630;9.000;2023-03-14T16:11:12;7.70;91.60
5786;DHT22;2919;48.630;9.000;2023-03-14T16:13:40;7.60;92.00
5786;DHT22;2919;48.630;9.000;2023-03-14T16:16:07;7.80;91.90
5786;DHT22;2919;48.630;9.000;2023-03-14T16:18:35;7.80;91.10
5786;DHT22;2919;48.630;9.000;2023-03-14T16:21:04;7.80;91.50
5786;DHT22;2919;48.630;9.000;2023-03-14T16:23:32;7.70;91.10
5786;DHT22;2919;48.630;9.000;2023-03-14T16:25:59;7.60;92.10
5786;DHT22;2919;48.630;9.000;2023-03-14T16:28:27;7.60;91.60
5786;DHT22;2919;48.630;9.000;2023-03-14T16:30:59;7.50;91.60
5786;DHT22;2919;48.630;9.000;2023-03-14T16:33:25;7.40;92.50
5786;DHT22;2919;48.630;9.000;2023-03-14T16:35:59;7.40;92.80
5786;DHT22;2919;48.630;9.000;2023-03-14T16:38:26;7.40;92.70
5786;DHT22;2919;48.630;9.000;2023-03-14T16:43:34;7.30;93.10
5786;DHT22;2919;48.630;9.000;2023-03-14T16:46:05;7.20;93.10
5786;DHT22;2919;48.630;9.000;2023-03-14T16:48:31;7.20;93.50
5786;DHT22;2919;48.630;9.000;2023-03-14T16:50:57;7.10;94.10
5786;DHT22;2919;48.630;9.000;2023-03-14T16:53:23;7.10;94.40
5786;DHT22;2919;48.630;9.000;2023-03-14T16:55:49;7.00;95.30
5786;DHT22;2919;48.630;9.000;2023-03-14T16:58:15;6.90;96.80
5786;DHT22;2919;48.630;9.000;2023-03-14T17:00:43;6.70;98.30
5786;DHT22;2919;48.630;9.000;2023-03-14T17:03:09;6.60;98.70
5786;DHT22;2919;48.630;9.000;2023-03-14T17:05:36;6.40;99.80
5786;DHT22;2919;48.630;9.000;2023-03-14T17:08:01;6.30;99.90
5786;DHT22;2919;48.630;9.000;2023-03-14T17:10:27;6.20;99.90
5786;DHT22;2919;48.630;9.000;2023-03-14T17:12:53;6.10;99.90
5786;DHT22;2919;48.630;9.000;2023-03-14T17:15:19;6.10;99.90
5786;DHT22;2919;48.630;9.000;2023-03-14T17:17:44;6.10;99.90
5786;DHT22;2919;48.630;9.000;2023-03-14T17:20:10;6.00;99.90
5786;DHT22;2919;48.630;9.000;2023-03-14T17:22:36;6.00;99.90
5786;DHT22;2919;48.630;9.000;2023-03-14T17:25:02;6.00;99.90
5786;DHT22;2919;48.630;9.000;2023-03-14T17:27:28;5.90;99.90
5786;DHT22;2919;48.630;9.000;2023-03-14T17:29:53;5.90;99.90
5786;DHT22;2919;48.630;9.000;2023-03-14T17:32:19;5.90;99.90
5786;DHT22;2919;48.630;9.000;2023-03-14T17:34:45;5.80;99.90
5786;DHT22;2919;48.630;9.000;2023-03-14T17:37:11;5.70;99.90
5786;DHT22;2919;48.630;9.000;2023-03-14T17:39:37;5.70;99.90
5786;DHT22;2919;48.630;9.000;2023-03-14T17:42:04;5.70;99.90
5786;DHT22;2919;48.630;9.000;2023-03-14T17:44:30;5.60;99.90
5786;DHT22;2919;48.630;9.000;2023-03-14T17:46:57;5.50;99.90
5786;DHT22;2919;48.630;9.000;2023-03-14T17:49:22;5.50;99.90